createdAt,value
2023-01-12T00:00:22.737Z,9.90
2023-01-12T00:05:24.846Z,9.90
2023-01-12T00:10:26.939Z,9.90
2023-01-12T00:15:30.460Z,9.90
2023-01-12T00:20:32.636Z,10.00
2023-01-12T00:25:34.718Z,9.90
2023-01-12T00:30:38.267Z,9.90
2023-01-12T00:35:40.441Z,9.80
2023-01-12T00:40:42.547Z,9.70
2023-01-12T00:45:49.783Z,9.60
2023-01-12T00:50:51.617Z,9.60
2023-01-12T00:55:53.668Z,9.70
2023-01-12T01:01:05.609Z,9.80
2023-01-12T01:06:08.482Z,9.80
2023-01-12T01:11:12.500Z,9.80
2023-01-12T01:16:18.155Z,9.80
2023-01-12T01:21:20.297Z,9.80
2023-01-12T01:26:23.609Z,9.80
2023-01-12T01:31:27.458Z,9.80
2023-01-12T01:36:29.624Z,9.90
2023-01-12T01:41:32.997Z,9.90
2023-01-12T01:46:42.511Z,10.00
2023-01-12T01:51:46.149Z,10.10
2023-01-12T01:56:50.147Z,10.20
2023-01-12T02:01:55.161Z,10.30
2023-01-12T02:06:59.714Z,10.30
2023-01-12T02:12:02.776Z,10.30
2023-01-12T02:17:19.707Z,10.30
2023-01-12T02:22:53.665Z,10.30
2023-01-12T02:28:31.206Z,10.30
2023-01-12T02:33:49.296Z,10.40
2023-01-12T02:38:57.500Z,10.40
2023-01-12T02:43:59.705Z,10.30
2023-01-12T02:49:08.381Z,10.30
2023-01-12T02:54:12.660Z,10.30
2023-01-12T02:59:18.651Z,10.20
2023-01-12T03:04:24.190Z,10.30
2023-01-12T03:09:31.143Z,10.30
2023-01-12T03:14:38.285Z,10.30
2023-01-12T03:19:44.860Z,10.40
2023-01-12T03:24:49.820Z,10.40
2023-01-12T03:29:57.356Z,10.40
2023-01-12T03:35:01.127Z,10.50
2023-01-12T03:40:09.498Z,10.50
2023-01-12T03:45:19.951Z,10.60
2023-01-12T03:50:29.017Z,10.60
2023-01-12T03:55:32.986Z,10.60
2023-01-12T04:00:35.828Z,10.60
2023-01-12T04:05:40.357Z,10.60
2023-01-12T04:10:42.543Z,10.50
2023-01-12T04:15:46.443Z,10.50
2023-01-12T04:20:49.962Z,10.50
2023-01-12T04:25:52.071Z,10.60
2023-01-12T04:30:54.201Z,10.60
2023-01-12T04:35:57.725Z,10.50
2023-01-12T04:40:59.867Z,10.50
2023-01-12T04:46:05.494Z,10.60
2023-01-12T04:51:09.058Z,10.60
2023-01-12T04:56:11.133Z,10.60
2023-01-12T05:01:15.369Z,10.60
2023-01-12T05:06:18.939Z,10.60
2023-01-12T05:11:21.426Z,10.70
2023-01-12T05:16:23.961Z,10.70
2023-01-12T05:21:27.485Z,10.70
2023-01-12T05:26:29.606Z,10.70
2023-01-12T05:31:34.477Z,10.70
2023-01-12T05:36:37.998Z,10.70
2023-01-12T05:41:40.110Z,10.70
2023-01-12T05:46:42.302Z,10.70
2023-01-12T05:51:45.839Z,10.80
2023-01-12T05:56:49.867Z,10.80
2023-01-12T06:01:52.331Z,10.70
2023-01-12T06:06:55.842Z,10.70
2023-01-12T06:11:57.918Z,10.70
2023-01-12T06:17:00.094Z,10.70
2023-01-12T06:22:03.561Z,10.70
2023-01-12T06:27:05.733Z,10.70
2023-01-12T06:32:07.951Z,10.60
2023-01-12T06:37:11.495Z,10.60
2023-01-12T06:42:13.604Z,10.60
2023-01-12T06:47:15.720Z,10.50
2023-01-12T06:52:20.667Z,10.50
2023-01-12T06:57:22.980Z,10.50
2023-01-12T07:02:25.080Z,10.50
2023-01-12T07:07:28.662Z,10.50
2023-01-12T07:12:31.163Z,10.50
2023-01-12T07:17:33.397Z,10.50
2023-01-12T07:22:37.030Z,10.50
2023-01-12T07:27:39.118Z,10.60
2023-01-12T07:32:41.813Z,10.60
2023-01-12T07:37:49.324Z,10.70
2023-01-12T07:42:59.437Z,10.70
2023-01-12T07:48:01.658Z,10.80
2023-01-12T07:53:05.268Z,10.80
2023-01-12T07:58:07.417Z,10.90
2023-01-12T08:03:11.948Z,10.90
2023-01-12T08:08:15.750Z,11.00
2023-01-12T08:13:18.631Z,11.10
2023-01-12T08:18:25.590Z,11.10
2023-01-12T08:23:33.997Z,11.20
2023-01-12T08:28:40.361Z,11.30
2023-01-12T08:33:43.331Z,11.40
2023-01-12T08:38:47.074Z,11.40
2023-01-12T08:43:49.185Z,11.50
2023-01-12T08:48:51.377Z,11.60
2023-01-12T08:53:55.001Z,11.60
2023-01-12T08:58:57.065Z,11.60
2023-01-12T09:04:00.076Z,11.70
2023-01-12T09:09:06.521Z,11.80
2023-01-12T09:14:09.027Z,11.80
2023-01-12T09:19:11.422Z,11.90
2023-01-12T09:24:15.894Z,12.00
2023-01-12T09:29:18.005Z,12.10
2023-01-12T09:34:20.167Z,12.10
2023-01-12T09:39:27.725Z,12.20
2023-01-12T09:44:35.092Z,12.30
2023-01-12T09:49:41.632Z,12.30
2023-01-12T09:54:47.928Z,12.40
2023-01-12T09:59:58.522Z,12.50
2023-01-12T10:05:06.217Z,12.60
2023-01-12T10:10:15.644Z,12.70
2023-01-12T10:15:41.068Z,12.80
2023-01-12T10:20:45.086Z,12.90
2023-01-12T10:25:51.560Z,12.90
2023-01-12T10:30:56.422Z,13.00
2023-01-12T10:36:01.881Z,13.10
2023-01-12T10:41:12.553Z,13.20
2023-01-12T10:46:16.898Z,13.20
2023-01-12T10:51:25.371Z,13.30
2023-01-12T10:56:34.179Z,13.30
2023-01-12T11:01:47.915Z,13.40
2023-01-12T11:07:00.484Z,13.50
2023-01-12T11:12:06.595Z,13.50
2023-01-12T11:17:27.996Z,13.60
2023-01-12T11:22:33.253Z,13.70
2023-01-12T11:27:42.310Z,13.90
2023-01-12T11:32:48.632Z,14.00
2023-01-12T11:37:55.554Z,14.10
2023-01-12T11:43:10.852Z,14.10
2023-01-12T11:48:22.383Z,14.10
2023-01-12T11:53:25.608Z,14.10
2023-01-12T11:58:36.527Z,14.10
2023-01-12T12:03:58.896Z,14.10
2023-01-12T12:09:13.140Z,14.00
2023-01-12T12:14:33.069Z,14.00
2023-01-12T12:19:45.099Z,14.00
2023-01-12T12:25:13.579Z,14.00
2023-01-12T12:30:48.935Z,14.00
2023-01-12T12:36:13.395Z,14.10
2023-01-12T12:41:32.119Z,14.00
2023-01-12T12:46:45.677Z,13.90
2023-01-12T12:51:48.825Z,13.80
2023-01-12T12:56:51.173Z,13.70
2023-01-12T13:01:58.993Z,13.60
2023-01-12T13:07:06.506Z,13.60
2023-01-12T13:12:21.925Z,13.50
2023-01-12T13:17:44.036Z,13.50
2023-01-12T13:22:48.302Z,13.40
2023-01-12T13:27:52.867Z,13.40
2023-01-12T13:33:01.201Z,13.40
2023-01-12T13:38:11.783Z,13.40
2023-01-12T13:43:20.574Z,13.40
2023-01-12T13:48:25.413Z,13.50
2023-01-12T13:53:29.614Z,13.50
2023-01-12T13:58:39.290Z,13.50
2023-01-12T14:04:01.163Z,13.60
2023-01-12T14:09:14.738Z,13.60
2023-01-12T14:15:04.620Z,13.70
2023-01-12T14:20:16.570Z,13.60
2023-01-12T14:25:22.050Z,13.70
2023-01-12T14:30:27.031Z,13.60
2023-01-12T14:35:30.598Z,13.60
2023-01-12T14:40:34.031Z,13.60
2023-01-12T14:45:37.245Z,13.60
2023-01-12T14:50:40.913Z,13.60
2023-01-12T14:55:43.094Z,13.60
2023-01-12T15:00:45.339Z,13.60
2023-01-12T15:05:49.022Z,13.60
2023-01-12T15:10:57.889Z,13.60
2023-01-12T15:16:01.390Z,13.60
2023-01-12T15:21:05.421Z,13.60
2023-01-12T15:26:07.576Z,13.60
2023-01-12T15:31:19.389Z,13.60
2023-01-12T15:36:23.319Z,13.60
2023-01-12T15:41:29.169Z,13.60
2023-01-12T15:46:31.417Z,13.60
2023-01-12T15:51:35.887Z,13.60
2023-01-12T15:56:38.022Z,13.60
2023-01-12T16:01:44.046Z,13.60
2023-01-12T16:06:47.712Z,13.60
2023-01-12T16:11:49.861Z,13.60
2023-01-12T16:16:52.057Z,13.50
2023-01-12T16:21:56.927Z,13.50
2023-01-12T16:26:59.076Z,13.50
2023-01-12T16:32:01.249Z,13.40
2023-01-12T16:37:05.374Z,13.40
2023-01-12T16:42:07.518Z,13.30
2023-01-12T16:47:13.423Z,13.30
2023-01-12T16:52:19.292Z,13.30
2023-01-12T16:57:21.425Z,13.20
2023-01-12T17:02:23.899Z,13.30
2023-01-12T17:07:28.675Z,13.30
2023-01-12T17:12:31.472Z,13.30
2023-01-12T17:17:34.308Z,13.30
2023-01-12T17:22:38.143Z,13.20
2023-01-12T17:27:40.289Z,13.30
2023-01-12T17:32:42.483Z,13.30
2023-01-12T17:37:46.173Z,13.20
2023-01-12T17:42:48.291Z,13.30
2023-01-12T17:47:50.503Z,13.30
2023-01-12T17:52:54.040Z,13.30
2023-01-12T17:57:56.259Z,13.20
2023-01-12T18:02:58.979Z,13.30
2023-01-12T18:08:02.495Z,13.20
2023-01-12T18:13:04.858Z,13.20
2023-01-12T18:18:07.363Z,13.20
2023-01-12T18:23:11.157Z,13.20
2023-01-12T18:28:13.453Z,13.20
2023-01-12T18:33:15.592Z,13.20
2023-01-12T18:38:19.360Z,13.10
2023-01-12T18:43:21.509Z,13.10
2023-01-12T18:48:23.624Z,13.10
2023-01-12T18:53:27.216Z,13.20
2023-01-12T18:58:31.420Z,13.20
2023-01-12T19:03:33.616Z,13.20
2023-01-12T19:08:37.186Z,13.20
2023-01-12T19:13:40.211Z,13.20
2023-01-12T19:18:42.315Z,13.20
2023-01-12T19:23:46.544Z,13.20
2023-01-12T19:28:48.733Z,13.20
2023-01-12T19:33:50.877Z,13.30
2023-01-12T19:38:54.471Z,13.30
2023-01-12T19:43:56.706Z,13.30
2023-01-12T19:48:58.870Z,13.30
2023-01-12T19:54:02.391Z,13.30
2023-01-12T19:59:04.654Z,13.30
2023-01-12T20:04:06.780Z,13.40
2023-01-12T20:09:10.318Z,13.40
2023-01-12T20:14:13.626Z,13.40
2023-01-12T20:19:15.804Z,13.40
2023-01-12T20:24:19.366Z,13.40
2023-01-12T20:29:23.975Z,13.30
2023-01-12T20:34:30.790Z,13.40
2023-01-12T20:39:34.445Z,13.30
2023-01-12T20:44:36.581Z,13.40
2023-01-12T20:49:38.848Z,13.40
2023-01-12T20:54:42.477Z,13.40
2023-01-12T20:59:44.869Z,13.40
2023-01-12T21:04:47.007Z,13.40
2023-01-12T21:09:50.535Z,13.40
2023-01-12T21:14:52.623Z,13.40
2023-01-12T21:19:54.705Z,13.40
2023-01-12T21:24:58.219Z,13.40
2023-01-12T21:30:00.345Z,13.40
2023-01-12T21:35:02.451Z,13.40
2023-01-12T21:40:07.231Z,13.40
2023-01-12T21:45:09.849Z,13.30
2023-01-12T21:50:12.590Z,13.30
2023-01-12T21:55:16.178Z,13.30
2023-01-12T22:00:19.005Z,13.30
2023-01-12T22:05:21.691Z,13.30
2023-01-12T22:10:25.614Z,13.30
2023-01-12T22:15:29.835Z,13.30
2023-01-12T22:20:32.159Z,13.30
2023-01-12T22:25:37.530Z,13.20
2023-01-12T22:30:39.612Z,13.30
2023-01-12T22:35:41.726Z,13.20
2023-01-12T22:40:45.292Z,13.20
2023-01-12T22:45:47.418Z,13.20
2023-01-12T22:50:49.578Z,13.10
2023-01-12T22:55:53.132Z,13.10
2023-01-12T23:00:55.425Z,13.00
2023-01-12T23:05:57.798Z,13.00
2023-01-12T23:11:06.148Z,12.90
2023-01-12T23:16:09.883Z,12.90
2023-01-12T23:21:14.484Z,12.80
2023-01-12T23:26:20.211Z,12.70
2023-01-12T23:31:24.930Z,12.70
2023-01-12T23:36:30.771Z,12.60
2023-01-12T23:41:36.055Z,12.60
2023-01-12T23:46:40.232Z,12.60
2023-01-12T23:51:42.430Z,12.50
2023-01-12T23:56:46.036Z,12.40
